Terminal Aerodrome Forecast
Issued by NWS Jackson, KY

Home | Current Version | Previous Version | Text Only | Print | Product List | Glossary On
Versions: 1 2 3 4 5 6 7 8 9 10 11 12 13 14
000
FTUS43 KJKL 192300
TAFJKL
TAF
KJKL 192321Z 2000/2024 VRB05KT P6SM BKN120 BKN250
     FM200700 VRB03KT P6SM BKN060
     FM201000 VRB04KT P6SM VCSH BKN040
     FM201400 VRB06KT P6SM BKN040=

USA.gov is the U.S. government's official web portal to all federal, state and local government web resources and services.